Midland, Michigan
Current Conditions -  °F | °C
As of 11:15 AM on Sunday 23 Nov 2014 (Local Time) from KIKW Reporting Station
Overcast Overcast  
Wind Chill: 51°   Ceiling: 3100
Heat Index: 51°   Visibility: 10mi
Dew Point: 46°   Wind: 8mph
Humidity: 81%   Direction: 180°S
Pressure: 29.8"   Gusts: NA
Location:  43.62°N, 84.22°W
Report Text: KIKW 231615Z AUTO 18007KT 10SM OVC031 11/08 A2980 RMK AO2 T01070076
Loading
Personal Weather Stations






























Interactive Weather Map New forecast layout! Learn more

10-Day Weather Forecast

Advertisements
Track Severe Weather on mobile